Rick Pumphrey — WDF8497 — position and weather

sailwx.info

Track history (hours):
 
Tides and Currents Weather Stations Pressure Air Temp Water Temp Dewpoint Dewpoint Depression Visibility Wind Speed Wind Dir Waves Ship Positions

Rick Pumphrey

Owner: Blessey Enterprises, Inc., Harahan, LA. More information available from US FCC via Universal Licensing System and Coast Guard Vessel Documentation Center.

Last reported at 2017-Oct-20 01:24 UTC. Time now 2017-Oct-20 16:09 UTC.
Position N 29°31' W 094°53'.

; draft 2.4 m.

Type: Tug. MMSI: 367495480.

Date/timePositionNaut miles runAvg speedWind from/ knotsBaromVisibWave heightAir tempDewpointWater temp
2017-Oct-20 01:24N 29°31' W 094°53'3 7.2
2017-Oct-20 01:00N 29°33' W 094°55'4 7.2
2017-Oct-20 00:30N 29°36' W 094°57'4 7.2
2017-Oct-20 00:00N 29°40' W 094°58'3 6.8
2017-Oct-19 23:30N 29°42' W 095°01'6 0.2
2017-Oct-18 12:01N 29°47' W 095°05'0 0.5
2017-Oct-18 12:00N 29°47' W 095°05'1 0.2
2017-Oct-18 08:28N 29°47' W 095°05'2 4.0
2017-Oct-18 07:56N 29°46' W 095°07'2 0.1
2017-Oct-17 15:51N 29°44' W 095°08'3 6.5
2017-Oct-17 15:26N 29°45' W 095°11'3 6.3
2017-Oct-17 14:55N 29°43' W 095°14'2 0.2
2017-Oct-17 03:12N 29°44' W 095°17'1 4.6
2017-Oct-17 03:00N 29°44' W 095°16'3 5.3
2017-Oct-17 02:27N 29°44' W 095°12'3 5.9
2017-Oct-17 01:59N 29°44' W 095°09'  
2017-Oct-14 20:31N 29°43' W 095°01'0 7.5
2017-Oct-14 20:30N 29°43' W 095°01'3 6.8
2017-Oct-14 20:00N 29°40' W 094°59'4 7.7
2017-Oct-14 19:27N 29°36' W 094°57'4 7.8
2017-Oct-14 19:00N 29°34' W 094°55'3 0.1
2017-Oct-13 08:54N 29°31' W 094°53'3 7.1
2017-Oct-13 08:30N 29°33' W 094°55'4 7.5
2017-Oct-13 08:00N 29°36' W 094°57'4 7.3
2017-Oct-13 07:30N 29°40' W 094°58'3 6.7
2017-Oct-13 07:00N 29°42' W 095°01'3 6.5
2017-Oct-13 06:29N 29°45' W 095°04'4 0.5
2017-Oct-12 23:10N 29°44' W 095°08'3 0.3
2017-Oct-12 12:23N 29°44' W 095°12'3 5.9
2017-Oct-12 11:53N 29°44' W 095°09'3 5.6
2017-Oct-12 11:21N 29°45' W 095°06'2 4.8
2017-Oct-12 10:55N 29°44' W 095°04'3 6.1
2017-Oct-12 10:27N 29°42' W 095°01'3 6.6
2017-Oct-12 10:00N 29°40' W 094°59'4 7.1
2017-Oct-12 09:30N 29°37' W 094°58'3 6.1
2017-Oct-12 09:00N 29°37' W 095°01'0 0.9
2017-Oct-12 08:30N 29°37' W 095°01'0 0.0
2017-Oct-12 08:00N 29°37' W 095°01'0 0.0
2017-Oct-12 07:30N 29°37' W 095°01'0 0.0
2017-Oct-12 07:00N 29°37' W 095°01'0 0.0
2017-Oct-12 06:30N 29°37' W 095°01'0 0.0
2017-Oct-12 06:00N 29°37' W 095°01'0 0.0
2017-Oct-12 05:30N 29°37' W 095°01'0 0.0
2017-Oct-12 05:00N 29°37' W 095°01'0 0.0
2017-Oct-12 04:30N 29°37' W 095°01'0 0.0
2017-Oct-12 04:00N 29°37' W 095°01'0 0.0
2017-Oct-12 03:30N 29°37' W 095°01'0 0.0
2017-Oct-12 03:00N 29°37' W 095°01'0 0.0
2017-Oct-12 02:30N 29°37' W 095°01'0 0.0
2017-Oct-12 02:00N 29°37' W 095°01'0 0.0
2017-Oct-12 01:30N 29°37' W 095°01'0 0.0
2017-Oct-12 01:00N 29°37' W 095°01'0 0.0
2017-Oct-12 00:30N 29°37' W 095°01'0 0.6
2017-Oct-12 00:00N 29°37' W 095°01'3 6.4
2017-Oct-11 23:30N 29°37' W 094°58'4 8.4
2017-Oct-11 23:00N 29°41' W 094°59'4 7.5
2017-Oct-11 22:29N 29°44' W 095°03'4 1.5
2017-Oct-11 19:59N 29°47' W 095°05'  
Track history (hours):
 
Tides and Currents Weather Stations Pressure Air Temp Water Temp Dewpoint Dewpoint Depression Visibility Wind Speed Wind Dir Waves Ship Positions

Rick Pumphrey

Owner: Blessey Enterprises, Inc., Harahan, LA. More information available from US FCC via Universal Licensing System and Coast Guard Vessel Documentation Center.

Last reported at 2017-Oct-20 01:24 UTC. Time now 2017-Oct-20 16:09 UTC.
Position N 29°31' W 094°53'.

; draft 2.4 m.

Type: Tug. MMSI: 367495480.

Date/timePositionNaut miles runAvg speedWind from/ knotsBaromVisibWave heightAir tempDewpointWater temp
2017-Oct-20 01:24N 29°31' W 094°53'3 7.2
2017-Oct-20 01:00N 29°33' W 094°55'4 7.2
2017-Oct-20 00:30N 29°36' W 094°57'4 7.2
2017-Oct-20 00:00N 29°40' W 094°58'3 6.8
2017-Oct-19 23:30N 29°42' W 095°01'6 0.2
2017-Oct-18 12:01N 29°47' W 095°05'0 0.5
2017-Oct-18 12:00N 29°47' W 095°05'1 0.2
2017-Oct-18 08:28N 29°47' W 095°05'2 4.0
2017-Oct-18 07:56N 29°46' W 095°07'2 0.1
2017-Oct-17 15:51N 29°44' W 095°08'3 6.5
2017-Oct-17 15:26N 29°45' W 095°11'3 6.3
2017-Oct-17 14:55N 29°43' W 095°14'2 0.2
2017-Oct-17 03:12N 29°44' W 095°17'1 4.6
2017-Oct-17 03:00N 29°44' W 095°16'3 5.3
2017-Oct-17 02:27N 29°44' W 095°12'3 5.9
2017-Oct-17 01:59N 29°44' W 095°09'  
2017-Oct-14 20:31N 29°43' W 095°01'0 7.5
2017-Oct-14 20:30N 29°43' W 095°01'3 6.8
2017-Oct-14 20:00N 29°40' W 094°59'4 7.7
2017-Oct-14 19:27N 29°36' W 094°57'4 7.8
2017-Oct-14 19:00N 29°34' W 094°55'3 0.1
2017-Oct-13 08:54N 29°31' W 094°53'3 7.1
2017-Oct-13 08:30N 29°33' W 094°55'4 7.5
2017-Oct-13 08:00N 29°36' W 094°57'4 7.3
2017-Oct-13 07:30N 29°40' W 094°58'3 6.7
2017-Oct-13 07:00N 29°42' W 095°01'3 6.5
2017-Oct-13 06:29N 29°45' W 095°04'4 0.5
2017-Oct-12 23:10N 29°44' W 095°08'3 0.3
2017-Oct-12 12:23N 29°44' W 095°12'3 5.9
2017-Oct-12 11:53N 29°44' W 095°09'3 5.6
2017-Oct-12 11:21N 29°45' W 095°06'2 4.8
2017-Oct-12 10:55N 29°44' W 095°04'3 6.1
2017-Oct-12 10:27N 29°42' W 095°01'3 6.6
2017-Oct-12 10:00N 29°40' W 094°59'4 7.1
2017-Oct-12 09:30N 29°37' W 094°58'3 6.1
2017-Oct-12 09:00N 29°37' W 095°01'0 0.9
2017-Oct-12 08:30N 29°37' W 095°01'0 0.0
2017-Oct-12 08:00N 29°37' W 095°01'0 0.0
2017-Oct-12 07:30N 29°37' W 095°01'0 0.0
2017-Oct-12 07:00N 29°37' W 095°01'0 0.0
2017-Oct-12 06:30N 29°37' W 095°01'0 0.0
2017-Oct-12 06:00N 29°37' W 095°01'0 0.0
2017-Oct-12 05:30N 29°37' W 095°01'0 0.0
2017-Oct-12 05:00N 29°37' W 095°01'0 0.0
2017-Oct-12 04:30N 29°37' W 095°01'0 0.0
2017-Oct-12 04:00N 29°37' W 095°01'0 0.0
2017-Oct-12 03:30N 29°37' W 095°01'0 0.0
2017-Oct-12 03:00N 29°37' W 095°01'0 0.0
2017-Oct-12 02:30N 29°37' W 095°01'0 0.0
2017-Oct-12 02:00N 29°37' W 095°01'0 0.0
2017-Oct-12 01:30N 29°37' W 095°01'0 0.0
2017-Oct-12 01:00N 29°37' W 095°01'0 0.0
2017-Oct-12 00:30N 29°37' W 095°01'0 0.6
2017-Oct-12 00:00N 29°37' W 095°01'3 6.4
2017-Oct-11 23:30N 29°37' W 094°58'4 8.4
2017-Oct-11 23:00N 29°41' W 094°59'4 7.5
2017-Oct-11 22:29N 29°44' W 095°03'4 1.5
2017-Oct-11 19:59N 29°47' W 095°05'  

Dump ship's entire track history